createdAt,value
2019-04-11T00:01:12.253Z,98879.26
2019-04-11T00:04:26.285Z,98886.42
2019-04-11T00:07:40.512Z,98882.72
2019-04-11T00:10:54.122Z,98889.61
2019-04-11T00:14:07.703Z,98883.36
2019-04-11T00:17:21.657Z,98891.89
2019-04-11T00:20:36.050Z,98896.10
2019-04-11T00:23:50.270Z,98886.60
2019-04-11T00:27:04.574Z,98893.61
2019-04-11T00:30:20.505Z,98888.27
2019-04-11T00:33:34.320Z,98891.96
2019-04-11T00:36:48.487Z,98896.34
2019-04-11T00:40:03.788Z,98899.91
2019-04-11T00:43:28.516Z,98899.73
2019-04-11T00:46:34.125Z,98894.56
2019-04-11T00:49:48.464Z,98899.03
2019-04-11T00:53:03.467Z,98894.88
2019-04-11T00:56:17.854Z,98894.06
2019-04-11T00:59:32.217Z,98893.89
2019-04-11T01:02:45.919Z,98898.81
2019-04-11T01:05:59.835Z,98900.67
2019-04-11T01:09:13.418Z,98900.24
2019-04-11T01:12:26.998Z,98903.52
2019-04-11T01:15:44.879Z,98899.23
2019-04-11T01:18:58.706Z,98902.91
2019-04-11T01:22:12.633Z,98901.52
2019-04-11T01:25:26.766Z,98902.09
2019-04-11T01:28:40.351Z,98905.00
2019-04-11T01:31:58.592Z,98906.47
2019-04-11T01:35:13.108Z,98904.00
2019-04-11T01:38:28.273Z,98900.95
2019-04-11T01:41:42.636Z,98903.80
2019-04-11T01:44:56.903Z,98905.12
2019-04-11T01:48:15.611Z,98905.52
2019-04-11T01:51:29.689Z,98900.64
2019-04-11T01:54:43.875Z,98904.99
2019-04-11T01:57:58.367Z,98901.95
2019-04-11T02:01:21.677Z,98904.30
2019-04-11T02:04:46.355Z,98913.77
2019-04-11T02:08:00.864Z,98910.67
2019-04-11T02:11:15.060Z,98911.61
2019-04-11T02:14:28.960Z,98913.25
2019-04-11T02:17:43.218Z,98914.15
2019-04-11T02:20:57.652Z,98921.03
2019-04-11T02:24:32.010Z,98923.75
2019-04-11T02:27:46.294Z,98920.52
2019-04-11T02:31:02.489Z,98926.88
2019-04-11T02:34:16.201Z,98922.02
2019-04-11T02:37:31.535Z,98934.00
2019-04-11T02:40:47.466Z,98936.01
2019-04-11T02:44:01.642Z,98930.39
2019-04-11T02:47:22.948Z,98934.19
2019-04-11T02:50:34.296Z,98939.47
2019-04-11T02:53:49.603Z,98943.30
2019-04-11T02:57:05.582Z,98949.95
2019-04-11T03:00:20.600Z,98949.43
2019-04-11T03:03:34.486Z,98949.43
2019-04-11T03:06:49.682Z,98947.80
2019-04-11T03:10:04.899Z,98952.66
2019-04-11T03:13:20.903Z,98958.13
2019-04-11T03:16:46.191Z,98962.63
2019-04-11T03:20:04.197Z,98968.95
2019-04-11T03:23:08.602Z,98974.74
2019-04-11T03:26:21.600Z,98976.38
2019-04-11T03:29:36.350Z,98977.08
2019-04-11T03:37:00.727Z,98983.05
2019-04-11T03:39:43.592Z,98977.30
2019-04-11T03:42:55.625Z,98983.80
2019-04-11T03:46:14.265Z,98979.83
2019-04-11T03:49:22.581Z,98984.16
2019-04-11T03:52:26.070Z,98978.23
2019-04-11T03:55:39.855Z,98978.25
2019-04-11T03:58:55.192Z,98987.45
2019-04-11T04:02:11.042Z,98997.02
2019-04-11T04:05:26.366Z,98999.02
2019-04-11T04:08:42.276Z,99001.16
2019-04-11T04:11:56.868Z,98999.03
2019-04-11T04:15:53.192Z,99004.61
2019-04-11T04:19:11.111Z,99008.05
2019-04-11T04:22:29.425Z,99009.13
2019-04-11T04:25:46.802Z,99012.38
2019-04-11T04:28:59.924Z,99013.13
2019-04-11T04:32:14.280Z,99015.63
2019-04-11T04:35:28.952Z,99019.80
2019-04-11T04:38:44.575Z,99031.70
2019-04-11T04:42:08.304Z,99027.54
2019-04-11T04:45:16.245Z,99028.44
2019-04-11T04:48:31.441Z,99031.69
2019-04-11T04:51:47.886Z,99036.92
2019-04-11T04:55:04.495Z,99040.16
2019-04-11T04:58:20.204Z,99048.64
2019-04-11T05:01:35.063Z,99049.70
2019-04-11T05:04:48.746Z,99048.79
2019-04-11T05:08:02.896Z,99062.52
2019-04-11T05:11:17.980Z,99070.44
2019-04-11T05:14:31.785Z,99065.38
2019-04-11T05:17:46.284Z,99065.21
2019-04-11T05:21:01.023Z,99065.23
2019-04-11T05:24:14.847Z,99071.92
2019-04-11T05:27:29.311Z,99075.89
2019-04-11T05:30:42.774Z,99073.19
2019-04-11T05:33:56.604Z,99078.22
2019-04-11T05:37:11.109Z,99078.06
2019-04-11T05:40:25.965Z,99081.86
2019-04-11T05:43:41.307Z,99084.56
2019-04-11T05:46:59.096Z,99094.31
2019-04-11T05:50:31.933Z,99090.89
2019-04-11T05:53:48.598Z,99090.17
2019-04-11T05:57:01.377Z,99095.58
2019-04-11T06:00:23.495Z,99098.81
2019-04-11T06:03:41.100Z,99096.13
2019-04-11T06:06:58.383Z,99088.89
2019-04-11T06:10:16.382Z,99096.11
2019-04-11T06:13:36.803Z,99100.09
2019-04-11T06:16:55.738Z,99098.78
2019-04-11T06:20:37.714Z,99106.52
2019-04-11T06:24:12.037Z,99105.45
2019-04-11T06:27:33.545Z,99096.73
2019-04-11T06:31:06.111Z,99104.98
2019-04-11T06:34:19.641Z,99107.76
2019-04-11T06:37:47.171Z,99106.17
2019-04-11T06:41:06.374Z,99112.94
2019-04-11T06:44:42.754Z,99114.09
2019-04-11T06:48:23.129Z,99111.39
2019-04-11T06:51:42.404Z,99108.64
2019-04-11T06:58:35.718Z,99116.59
2019-04-11T07:01:52.832Z,99120.49
2019-04-11T07:05:07.881Z,99112.30
2019-04-11T07:08:25.122Z,99119.46
2019-04-11T07:11:50.742Z,99114.11
2019-04-11T07:15:10.133Z,99111.94
2019-04-11T07:18:40.943Z,99114.43
2019-04-11T07:21:54.450Z,99114.14
2019-04-11T07:25:28.882Z,99121.42
2019-04-11T07:29:02.297Z,99115.23
2019-04-11T07:32:18.004Z,99120.61
2019-04-11T07:35:52.980Z,99118.56
2019-04-11T07:39:20.776Z,99124.29
2019-04-11T07:42:47.063Z,99120.33
2019-04-11T07:46:25.015Z,99120.18
2019-04-11T07:49:39.200Z,99111.22
2019-04-11T07:52:58.203Z,99116.77
2019-04-11T07:56:27.715Z,99121.34
2019-04-11T08:00:10.429Z,99122.58
2019-04-11T08:03:36.043Z,99124.23
2019-04-11T08:07:21.969Z,99123.85
2019-04-11T08:10:41.466Z,99118.22
2019-04-11T08:14:13.224Z,99122.94
2019-04-11T08:17:36.847Z,99123.72
2019-04-11T08:21:20.536Z,99129.43
2019-04-11T08:24:48.973Z,99127.99
2019-04-11T08:28:07.818Z,99132.11
2019-04-11T08:31:38.652Z,99139.73
2019-04-11T08:35:01.969Z,99131.63
2019-04-11T08:38:22.421Z,99138.25
2019-04-11T08:41:55.111Z,99130.19
2019-04-11T08:45:10.716Z,99133.64
2019-04-11T08:48:24.729Z,99126.38
2019-04-11T08:51:39.134Z,99132.23
2019-04-11T08:55:04.258Z,99121.14
2019-04-11T08:58:22.714Z,99130.02
2019-04-11T09:01:36.464Z,99127.16
2019-04-11T09:05:13.668Z,99125.03
2019-04-11T09:08:56.473Z,99119.52
2019-04-11T09:12:12.178Z,99126.01
2019-04-11T09:15:51.141Z,99131.81
2019-04-11T09:19:14.601Z,99122.70
2019-04-11T09:22:51.561Z,99129.11
2019-04-11T09:26:31.975Z,99126.34
2019-04-11T09:29:50.356Z,99126.35
2019-04-11T09:33:24.672Z,99125.95
2019-04-11T09:36:46.933Z,99122.89
2019-04-11T09:40:17.762Z,99126.86
2019-04-11T09:43:31.821Z,99123.02
2019-04-11T09:47:08.039Z,99117.73
2019-04-11T09:50:40.588Z,99119.00
2019-04-11T09:54:20.958Z,99113.41
2019-04-11T09:57:37.721Z,99107.20
2019-04-11T10:01:29.457Z,99107.99
2019-04-11T10:04:43.775Z,99113.58
2019-04-11T10:08:17.165Z,99115.09
2019-04-11T10:11:59.256Z,99107.86
2019-04-11T10:15:13.566Z,99117.44
2019-04-11T10:18:43.666Z,99117.13
2019-04-11T10:22:18.513Z,99110.44
2019-04-11T10:25:35.309Z,99108.91
2019-04-11T10:29:08.689Z,99101.63
2019-04-11T10:32:25.446Z,99098.92
2019-04-11T10:35:57.227Z,99104.34
2019-04-11T10:39:22.994Z,99104.42
2019-04-11T10:42:36.915Z,99104.52
2019-04-11T10:46:16.039Z,99106.48
2019-04-11T10:49:48.411Z,99105.19
2019-04-11T10:53:03.296Z,99108.21
2019-04-11T10:56:31.019Z,99107.41
2019-04-11T10:59:44.933Z,99103.83
2019-04-11T11:03:07.652Z,99107.31
2019-04-11T11:06:23.994Z,99095.15
2019-04-11T11:10:09.336Z,99100.77
2019-04-11T11:13:58.407Z,99098.30
2019-04-11T11:18:20.517Z,99090.14
2019-04-11T11:21:07.405Z,99097.96
2019-04-11T11:24:38.222Z,99094.80
2019-04-11T11:27:50.860Z,99099.39
2019-04-11T11:31:12.499Z,99100.70
2019-04-11T11:34:35.240Z,99098.09
2019-04-11T11:37:53.440Z,99100.84
2019-04-11T11:41:45.506Z,99095.73
2019-04-11T11:45:04.158Z,99102.11
2019-04-11T11:48:41.778Z,99096.11
2019-04-11T11:52:15.277Z,99099.43
2019-04-11T11:55:33.506Z,99098.02
2019-04-11T11:59:11.160Z,99096.88
2019-04-11T12:02:28.842Z,99092.66
2019-04-11T12:05:50.208Z,99090.44
2019-04-11T12:09:38.484Z,99082.37
2019-04-11T12:13:13.317Z,99083.25
2019-04-11T12:16:48.340Z,99092.05
2019-04-11T12:20:22.945Z,99080.28
2019-04-11T12:24:15.472Z,99086.05
2019-04-11T12:27:47.459Z,99099.11
2019-04-11T12:31:05.504Z,99082.73
2019-04-11T12:34:45.007Z,99094.48
2019-04-11T12:38:04.307Z,99086.39
2019-04-11T12:41:37.083Z,99082.42
2019-04-11T12:45:09.106Z,99087.99
2019-04-11T12:48:27.319Z,99083.70
2019-04-11T12:52:09.149Z,99081.38
2019-04-11T12:55:33.887Z,99075.28
2019-04-11T12:59:25.647Z,99072.90
2019-04-11T13:03:04.583Z,99084.26
2019-04-11T13:06:34.577Z,99068.27
2019-04-11T13:09:50.787Z,99073.12
2019-04-11T13:13:24.149Z,99071.59
2019-04-11T13:16:38.276Z,99078.19
2019-04-11T13:20:10.813Z,99064.95
2019-04-11T13:23:46.697Z,99065.86
2019-04-11T13:27:26.149Z,99069.25
2019-04-11T13:31:10.820Z,99067.00
2019-04-11T13:34:24.918Z,99070.91
2019-04-11T13:37:56.591Z,99066.19
2019-04-11T13:41:28.460Z,99061.79
2019-04-11T13:44:42.652Z,99049.21
2019-04-11T13:48:14.314Z,99065.13
2019-04-11T13:51:53.067Z,99053.50
2019-04-11T13:55:24.521Z,99048.66
2019-04-11T13:58:56.672Z,99049.06
2019-04-11T14:02:18.858Z,99056.02
2019-04-11T14:05:34.080Z,99069.19
2019-04-11T14:09:10.299Z,99057.44
2019-04-11T14:12:26.209Z,99046.80
2019-04-11T14:15:40.804Z,99033.47
2019-04-11T14:19:02.287Z,99047.45
2019-04-11T14:22:16.641Z,99041.59
2019-04-11T14:25:49.298Z,99034.61
2019-04-11T14:29:25.618Z,99036.78
2019-04-11T14:32:43.149Z,99032.83
2019-04-11T14:36:34.798Z,99032.63
2019-04-11T14:39:50.980Z,99030.55
2019-04-11T14:43:23.354Z,99032.99
2019-04-11T14:46:58.322Z,99045.64
2019-04-11T14:50:12.371Z,99052.83
2019-04-11T14:53:33.546Z,99040.55
2019-04-11T14:57:06.385Z,99038.50
2019-04-11T15:00:29.728Z,99035.27
2019-04-11T15:04:01.611Z,99036.23
2019-04-11T15:07:15.663Z,99031.27
2019-04-11T15:10:49.133Z,99023.09
2019-04-11T15:14:12.177Z,99036.23
2019-04-11T15:17:28.662Z,99032.30
2019-04-11T15:20:55.500Z,99032.34
2019-04-11T15:24:08.164Z,99046.05
2019-04-11T15:27:40.995Z,99042.67
2019-04-11T15:30:57.397Z,99048.72
2019-04-11T15:34:26.563Z,99043.33
2019-04-11T15:37:58.420Z,99053.17
2019-04-11T15:41:11.904Z,99045.87
2019-04-11T15:44:48.352Z,99043.70
2019-04-11T15:48:23.448Z,99047.21
2019-04-11T15:51:44.931Z,99042.28
2019-04-11T15:55:17.219Z,99046.02
2019-04-11T15:58:37.318Z,99047.48
2019-04-11T16:02:13.256Z,99039.25
2019-04-11T16:05:49.750Z,99040.95
2019-04-11T16:09:09.738Z,99048.51
2019-04-11T16:12:30.922Z,99046.14
2019-04-11T16:15:44.548Z,99052.51
2019-04-11T16:19:17.995Z,99043.13
2019-04-11T16:22:59.460Z,99048.31
2019-04-11T16:26:17.385Z,99048.61
2019-04-11T16:29:38.670Z,99051.67
2019-04-11T16:33:06.284Z,99054.54
2019-04-11T16:36:39.417Z,99063.66
2019-04-11T16:40:11.187Z,99060.34
2019-04-11T16:43:25.157Z,99069.52
2019-04-11T16:46:56.805Z,99067.82
2019-04-11T16:50:10.492Z,99074.48
2019-04-11T16:53:24.060Z,99074.11
2019-04-11T16:56:37.820Z,99069.64
2019-04-11T16:59:51.435Z,99068.82
2019-04-11T17:03:04.917Z,99072.51
2019-04-11T17:06:36.962Z,99074.76
2019-04-11T17:09:51.164Z,99077.95
2019-04-11T17:13:04.628Z,99084.92
2019-04-11T17:16:19.638Z,99081.41
2019-04-11T17:19:35.816Z,99087.88
2019-04-11T17:22:49.321Z,99094.09
2019-04-11T17:26:03.448Z,99092.87
2019-04-11T17:29:16.905Z,99093.20
2019-04-11T17:32:30.633Z,99095.55
2019-04-11T17:35:44.226Z,99103.83
2019-04-11T17:38:57.687Z,99106.36
2019-04-11T17:42:13.295Z,99112.41
2019-04-11T17:45:26.868Z,99112.41
2019-04-11T17:48:40.367Z,99114.41
2019-04-11T17:51:56.000Z,99114.33
2019-04-11T17:55:09.837Z,99112.95
2019-04-11T17:58:26.762Z,99115.64
2019-04-11T18:01:38.708Z,99123.75
2019-04-11T18:04:52.462Z,99127.09
2019-04-11T18:08:06.026Z,99123.38
2019-04-11T18:11:19.980Z,99129.81
2019-04-11T18:14:33.443Z,99144.16
2019-04-11T18:17:46.912Z,99145.56
2019-04-11T18:21:00.574Z,99150.40
2019-04-11T18:24:14.044Z,99154.41
2019-04-11T18:27:27.496Z,99153.84
2019-04-11T18:30:42.565Z,99154.94
2019-04-11T18:33:56.159Z,99161.89
2019-04-11T18:37:09.971Z,99170.78
2019-04-11T18:40:23.552Z,99165.78
2019-04-11T18:43:36.999Z,99180.30
2019-04-11T18:46:50.868Z,99182.52
2019-04-11T18:50:06.162Z,99187.56
2019-04-11T18:53:19.614Z,99184.92
2019-04-11T18:56:33.296Z,99190.41
2019-04-11T18:59:46.762Z,99191.94
2019-04-11T19:03:00.331Z,99193.55
2019-04-11T19:06:14.251Z,99203.86
2019-04-11T19:09:28.203Z,99200.08
2019-04-11T19:12:43.962Z,99205.31
2019-04-11T19:15:57.043Z,99205.61
2019-04-11T19:19:10.609Z,99208.09
2019-04-11T19:22:37.044Z,99213.07
2019-04-11T19:25:44.254Z,99221.83
2019-04-11T19:28:55.785Z,99226.03
2019-04-11T19:32:09.704Z,99230.08
2019-04-11T19:35:23.183Z,99226.13
2019-04-11T19:38:37.159Z,99235.69
2019-04-11T19:41:50.624Z,99234.20
2019-04-11T19:45:05.992Z,99235.31
2019-04-11T19:48:19.448Z,99236.27
2019-04-11T19:51:32.936Z,99235.64
2019-04-11T19:54:46.421Z,99237.98
2019-04-11T19:57:59.870Z,99237.68
2019-04-11T20:01:13.363Z,99233.11
2019-04-11T20:04:27.159Z,99242.34
2019-04-11T20:07:40.627Z,99238.34
2019-04-11T20:10:54.083Z,99242.60
2019-04-11T20:14:07.981Z,99237.53
2019-04-11T20:17:21.512Z,99242.62
2019-04-11T20:20:37.028Z,99246.00
2019-04-11T20:23:50.392Z,99251.95
2019-04-11T20:27:03.839Z,99247.89
2019-04-11T20:30:17.696Z,99247.78
2019-04-11T20:33:34.705Z,99247.42
2019-04-11T20:36:46.867Z,99249.44
2019-04-11T20:40:00.336Z,99250.62
2019-04-11T20:43:13.797Z,99249.38
2019-04-11T20:46:29.198Z,99251.77
2019-04-11T20:49:48.789Z,99264.02
2019-04-11T20:53:11.937Z,99262.69
2019-04-11T20:56:24.010Z,99258.49
2019-04-11T20:59:34.737Z,99260.46
2019-04-11T21:02:48.477Z,99263.00
2019-04-11T21:06:02.566Z,99258.63
2019-04-11T21:09:16.175Z,99256.84
2019-04-11T21:12:29.916Z,99259.91
2019-04-11T21:15:43.385Z,99259.69
2019-04-11T21:18:56.930Z,99261.73
2019-04-11T21:22:10.422Z,99263.38
2019-04-11T21:25:26.090Z,99260.14
2019-04-11T21:28:39.618Z,99266.16
2019-04-11T21:31:53.098Z,99265.88
2019-04-11T21:35:06.663Z,99269.89
2019-04-11T21:38:20.329Z,99279.02
2019-04-11T21:41:36.049Z,99281.31
2019-04-11T21:44:49.191Z,99283.84
2019-04-11T21:48:05.616Z,99286.00
2019-04-11T21:51:18.498Z,99284.16
2019-04-11T21:54:31.948Z,99289.77
2019-04-11T21:57:48.355Z,99291.08
2019-04-11T22:01:06.850Z,99284.49
2019-04-11T22:04:39.996Z,99292.55
2019-04-11T22:07:53.454Z,99289.05
2019-04-11T22:11:09.839Z,99285.81
2019-04-11T22:14:22.964Z,99284.60
2019-04-11T22:17:36.414Z,99287.27
2019-04-11T22:20:49.874Z,99288.98
2019-04-11T22:24:03.561Z,99286.69
2019-04-11T22:27:17.133Z,99290.33
2019-04-11T22:30:30.592Z,99296.08
2019-04-11T22:33:48.142Z,99296.28
2019-04-11T22:37:01.781Z,99296.66
2019-04-11T22:40:15.646Z,99298.92
2019-04-11T22:43:29.376Z,99298.94
2019-04-11T22:46:43.179Z,99302.61
2019-04-11T22:49:56.773Z,99302.98
2019-04-11T22:53:12.878Z,99312.09
2019-04-11T22:56:25.615Z,99309.05
2019-04-11T22:59:39.121Z,99314.86
2019-04-11T23:03:12.251Z,99312.00
2019-04-11T23:06:25.695Z,99313.68
2019-04-11T23:09:39.163Z,99312.48
2019-04-11T23:12:52.960Z,99311.24
2019-04-11T23:16:06.534Z,99312.52
2019-04-11T23:19:20.011Z,99310.34
2019-04-11T23:22:33.516Z,99325.95
2019-04-11T23:25:46.932Z,99318.55
2019-04-11T23:29:00.951Z,99319.48
2019-04-11T23:32:14.432Z,99322.38
2019-04-11T23:35:27.918Z,99330.90
2019-04-11T23:38:41.374Z,99328.73
2019-04-11T23:41:55.155Z,99331.66
2019-04-11T23:45:08.744Z,99333.28
2019-04-11T23:48:24.012Z,99338.16
2019-04-11T23:51:38.268Z,99340.17
2019-04-11T23:54:52.291Z,99339.26
2019-04-11T23:58:05.757Z,99344.14
